UACC/TSE METAR and TAF weather

Enter ICAO airport designator
Station Type Date Time Source
UACC METAR 2022/12/05 15:00 UTC NOAA

UACC 051500Z 21002MPS 9999 FEW010 M27/M30 Q1038 NOSIG RMK QFE746/0995


Station Type Date Time Source
UACC Decoded METAR 2022/12/05 15:00 UTC NOAA

Astana, Kazakhstan (UACC) 51-12N 071-27E
Dec 05, 2022 - 10:00 AM EST / 2022.12.05 1500 UTC
Wind: from the SSW (210 degrees) at 4 MPH (4 KT):0
Visibility: greater than 7 mile(s):0
Sky conditions: mostly clear
Temperature: -16 F (-27 C)
Dew Point: -22 F (-30 C)
Relative Humidity: 75%
Pressure (altimeter): 30.65 in. Hg (1038 hPa)
ob: UACC 051500Z 21002MPS 9999 FEW010 M27/M30 Q1038 NOSIG RMK QFE746/0995
cycle: 15

Station Type Date Time Source
UACC TAF 2022/12/05 12:21 UTC NOAA

TAF UACC 051102Z 0512/0612 18003MPS 3100 BR SCT007 TXM22/0609Z TNM31/0601Z
TEMPO 0512/0516 VRB02MPS 0200 FZFG VV002
BECMG 0516/0518 1000 IC BR SCT004
TEMPO 0516/0604 VRB02MPS 0200 FZFG VV001
FM060400 10004MPS 6000 SCT011
TEMPO 0604/0612 3100 BR SCT004

Example: see airport list